Time;durP1;ratioP1;P1;durP2;ratioP2;P2;SDS_P1;SDS_P2;PMS_P1;PMS_P2;Temp;Humidity;BMP_temperature;BMP_pressure;BME280_temperature;BME280_humidity;BME280_pressure;Samples;Min_cycle;Max_cycle;Signal;HPM_P1;HPM_P2
2021/05/15 00:00:11;;;;;;;13.88;11.20;;;;;;;15.79;76.02;99210.37;1660205;84;21144;-85
2021/05/15 00:02:40;;;;;;;15.55;12.28;;;;;;;15.61;76.63;99211.03;1660894;84;21107;-85
2021/05/15 00:05:14;;;;;;;15.45;11.33;;;;;;;15.67;76.48;99212.84;1663237;84;21123;-86
2021/05/15 00:07:39;;;;;;;14.23;11.60;;;;;;;15.67;76.04;99223.49;1659731;84;21371;-85
2021/05/15 00:10:11;;;;;;;16.15;11.70;;;;;;;15.60;76.34;99205.43;1660230;84;21558;-87
2021/05/15 00:12:38;;;;;;;15.75;11.20;;;;;;;15.70;76.01;99209.77;1634068;84;21162;-85
2021/05/15 00:15:08;;;;;;;;;;;;;;;15.57;76.21;99220.48;1662532;84;21100;-87
2021/05/15 00:17:37;;;;;;;15.98;11.45;;;;;;;15.52;76.48;99217.63;1637390;85;20605;-85
2021/05/15 00:20:12;;;;;;;15.95;11.97;;;;;;;15.55;76.46;99214.05;1659096;84;21262;-87
2021/05/15 00:22:39;;;;;;;17.25;11.80;;;;;;;15.43;76.87;99219.73;1658932;84;21068;-84
2021/05/15 00:25:09;;;;;;;16.35;12.50;;;;;;;15.44;76.91;99218.19;1660947;84;21697;-87
2021/05/15 00:27:36;;;;;;;14.30;11.05;;;;;;;15.37;77.04;99224.03;1662585;84;21717;-84
2021/05/15 00:30:09;;;;;;;17.45;11.90;;;;;;;15.38;77.04;99219.02;1660976;84;21069;-81
2021/05/15 00:32:37;;;;;;;20.90;12.70;;;;;;;15.34;77.30;99232.44;1660592;84;21678;-83
2021/05/15 00:35:05;;;;;;;17.50;12.53;;;;;;;15.40;77.07;99222.28;1636470;86;21711;-83
2021/05/15 00:37:36;;;;;;;17.52;13.15;;;;;;;15.39;77.09;99221.97;1662060;84;21055;-83
2021/05/15 00:40:10;;;;;;;17.92;13.38;;;;;;;15.28;77.55;99230.61;1661242;84;21080;-83
2021/05/15 00:42:39;;;;;;;15.88;12.70;;;;;;;15.26;77.68;99220.70;1660949;84;21613;-82
2021/05/15 00:45:14;;;;;;;;;;;;;;;15.48;76.73;99224.41;1663258;84;21080;-84
2021/05/15 00:47:41;;;;;;;15.50;12.93;;;;;;;15.26;77.57;99224.69;1630280;84;20292;-83
2021/05/15 00:50:10;;;;;;;18.50;12.85;;;;;;;15.19;78.00;99226.55;1632768;86;24155;-82
2021/05/15 00:52:39;;;;;;;16.05;12.70;;;;;;;15.26;77.72;99227.36;1661459;84;21161;-85
2021/05/15 00:55:11;;;;;;;17.45;13.10;;;;;;;15.34;77.43;99228.97;1660529;84;21137;-90
2021/05/15 00:57:40;;;;;;;17.60;12.98;;;;;;;15.46;76.60;99233.94;1658229;84;21143;-81
2021/05/15 01:00:13;;;;;;;18.80;12.85;;;;;;;15.45;76.75;99229.63;1659609;85;21046;-83
2021/05/15 01:02:39;;;;;;;17.98;13.58;;;;;;;15.49;76.67;99231.34;1661724;84;21636;-82
2021/05/15 01:05:06;;;;;;;17.10;13.55;;;;;;;15.32;77.26;99236.32;1661085;85;21757;-82
2021/05/15 01:07:34;;;;;;;15.20;12.45;;;;;;;15.31;77.49;99235.52;1660549;84;21021;-84
2021/05/15 01:10:03;;;;;;;17.60;13.93;;;;;;;15.21;77.84;99236.45;1667705;84;21075;-82
2021/05/15 01:12:33;;;;;;;16.25;13.38;;;;;;;15.39;77.15;99241.92;1660673;84;21137;-82
2021/05/15 01:15:02;;;;;;;16.17;13.13;;;;;;;15.29;77.46;99240.23;1660309;84;21117;-81
2021/05/15 01:17:33;;;;;;;16.73;13.10;;;;;;;15.32;77.24;99234.50;1664849;84;21050;-83
2021/05/15 01:20:06;;;;;;;16.60;12.73;;;;;;;15.37;76.99;99229.35;1636388;86;21646;-82
2021/05/15 01:22:34;;;;;;;15.38;13.22;;;;;;;15.29;77.30;99221.61;1660785;84;21068;-81
2021/05/15 01:25:02;;;;;;;18.20;13.95;;;;;;;15.29;77.30;99232.26;1663336;84;22441;-85
2021/05/15 01:27:33;;;;;;;;;;;;;;;15.21;77.51;99230.64;1665846;84;21131;-80
2021/05/15 01:30:01;;;;;;;17.82;12.68;;;;;;;15.21;77.44;99231.97;1634096;86;20216;-82
2021/05/15 01:32:29;;;;;;;17.87;13.75;;;;;;;15.12;77.66;99236.38;1661196;84;21028;-81
2021/05/15 01:34:56;;;;;;;;;;;;;;;15.07;77.80;99232.52;1665064;84;21085;-82
2021/05/15 01:37:26;;;;;;;18.82;14.18;;;;;;;14.98;78.37;99231.09;1657690;84;20206;-82
2021/05/15 01:39:55;;;;;;;18.70;13.98;;;;;;;15.05;77.97;99239.86;1636148;86;21122;-81
2021/05/15 01:42:21;;;;;;;19.77;14.75;;;;;;;14.86;78.82;99248.70;1659440;84;21092;-81
2021/05/15 01:44:49;;;;;;;18.82;14.63;;;;;;;14.81;79.06;99245.86;1659525;84;20952;-81
2021/05/15 01:47:15;;;;;;;17.92;14.35;;;;;;;14.68;79.77;99246.66;1659466;84;21113;-84
2021/05/15 01:49:42;;;;;;;18.45;13.53;;;;;;;14.91;78.76;99234.27;1662740;84;21020;-81
2021/05/15 01:52:10;;;;;;;;;;;;;;;14.64;80.15;99244.94;1661507;84;21155;-87
2021/05/15 01:54:39;;;;;;;21.45;14.47;;;;;;;14.68;80.07;99243.52;1659837;84;20660;-82
2021/05/15 01:57:06;;;;;;;20.23;14.90;;;;;;;14.72;80.08;99239.92;1661471;84;21684;-82
2021/05/15 01:59:38;;;;;;;20.80;15.85;;;;;;;14.57;80.77;99242.75;1662184;84;21120;-85
2021/05/15 02:02:07;;;;;;;22.73;15.50;;;;;;;14.55;81.14;99239.48;1645714;85;21090;-81
2021/05/15 02:04:35;;;;;;;23.42;14.93;;;;;;;14.63;80.60;99241.16;1600304;86;22579;-87
2021/05/15 02:07:01;;;;;;;17.12;13.98;;;;;;;14.87;79.71;99245.03;1646250;85;21688;-84
2021/05/15 02:09:30;;;;;;;20.23;15.48;;;;;;;14.63;80.50;99246.47;1647748;85;20980;-83
2021/05/15 02:11:59;;;;;;;19.20;15.18;;;;;;;14.60;80.90;99243.70;1626310;86;21739;-83
2021/05/15 02:14:27;;;;;;;20.32;14.55;;;;;;;14.65;80.76;99243.09;1641583;85;21057;-82
2021/05/15 02:16:55;;;;;;;15.95;13.60;;;;;;;14.68;80.44;99244.84;1644040;86;21168;-83
2021/05/15 02:19:21;;;;;;;21.35;14.55;;;;;;;14.77;79.93;99246.76;1642727;85;21092;-84
2021/05/15 02:21:50;;;;;;;18.02;14.55;;;;;;;14.74;80.21;99247.69;1642602;85;21073;-82
2021/05/15 02:24:16;;;;;;;17.35;13.48;;;;;;;14.77;79.77;99245.95;1642479;85;21004;-83
2021/05/15 02:26:42;;;;;;;18.98;13.48;;;;;;;14.79;79.36;99250.54;1644602;85;21123;-84
2021/05/15 02:29:09;;;;;;;17.23;13.18;;;;;;;14.85;78.96;99244.40;1641830;85;20963;-90
2021/05/15 02:31:37;;;;;;;16.73;13.08;;;;;;;14.84;78.83;99253.42;1645201;85;21021;-84
2021/05/15 02:34:03;;;;;;;;;;;;;;;14.68;79.36;99248.83;1647434;85;22435;-83
2021/05/15 02:36:31;;;;;;;16.40;12.60;;;;;;;14.71;79.21;99255.06;1644885;85;20257;-84
2021/05/15 02:39:01;;;;;;;14.90;12.30;;;;;;;14.66;79.17;99249.52;1646120;85;21112;-84
2021/05/15 02:41:30;;;;;;;14.75;11.30;;;;;;;14.62;79.45;99254.96;1624029;86;21165;-85
2021/05/15 02:43:59;;;;;;;17.57;11.78;;;;;;;14.67;79.08;99250.36;1624304;86;21128;-82
2021/05/15 02:46:26;;;;;;;15.25;11.90;;;;;;;14.61;79.26;99253.31;1643494;85;22209;-82
2021/05/15 02:48:53;;;;;;;15.35;11.70;;;;;;;14.75;78.84;99252.00;1626372;85;21132;-81
2021/05/15 02:51:20;;;;;;;14.30;10.68;;;;;;;14.76;78.43;99251.79;1623320;86;20997;-83
2021/05/15 02:53:47;;;;;;;;;;;;;;;14.72;78.42;99254.54;1627554;86;21694;-81
2021/05/15 02:56:15;;;;;;;14.03;10.45;;;;;;;14.73;78.30;99256.19;1645119;85;20176;-84
2021/05/15 02:58:42;;;;;;;;;;;;;;;14.76;78.01;99259.77;1642576;85;22201;-82
2021/05/15 03:01:09;;;;;;;24.63;9.50;;;;;;;14.80;77.73;99261.48;1638976;85;21646;-84
2021/05/15 03:03:36;;;;;;;;;;;;;;;14.85;77.54;99267.00;1650542;85;21729;-80
2021/05/15 03:06:03;;;;;;;15.58;8.75;;;;;;;14.83;77.49;99265.06;1649256;85;20596;-83
2021/05/15 03:08:34;;;;;;;15.45;9.28;;;;;;;14.71;77.70;99272.34;1653129;85;21609;-83
2021/05/15 03:11:00;;;;;;;13.75;8.83;;;;;;;14.77;77.53;99265.88;1650237;85;21139;-81
2021/05/15 03:13:28;;;;;;;10.70;8.13;;;;;;;14.93;76.96;99267.30;1649930;85;27088;-81
2021/05/15 03:15:55;;;;;;;12.43;7.92;;;;;;;14.78;77.39;99272.84;1652648;85;21177;-82
2021/05/15 03:18:29;;;;;;;12.40;8.35;;;;;;;14.83;77.31;99278.35;1616825;86;21178;-81
2021/05/15 03:20:57;;;;;;;10.95;8.53;;;;;;;15.04;76.64;99277.33;1639686;86;21658;-81
2021/05/15 03:23:27;;;;;;;12.45;8.20;;;;;;;15.15;75.99;99266.05;1621486;86;21203;-81
2021/05/15 03:25:53;;;;;;;13.53;8.10;;;;;;;15.08;76.36;99275.34;1619752;86;21107;-89
2021/05/15 03:28:19;;;;;;;10.23;7.90;;;;;;;15.10;76.12;99275.66;1649853;85;21075;-85
2021/05/15 03:30:46;;;;;;;14.63;8.55;;;;;;;15.10;76.14;99269.81;1641846;85;20937;-82
2021/05/15 03:33:15;;;;;;;13.62;7.87;;;;;;;15.01;76.51;99281.20;1618440;85;21083;-83
2021/05/15 03:35:44;;;;;;;9.68;7.20;;;;;;;15.16;76.10;99268.18;1623314;86;21656;-82
2021/05/15 03:38:11;;;;;;;9.70;7.58;;;;;;;15.39;75.43;99273.84;1651587;85;21149;-82
2021/05/15 03:40:40;;;;;;;13.03;8.30;;;;;;;15.47;74.89;99278.64;1646725;85;21119;-87
2021/05/15 03:43:07;;;;;;;11.43;7.22;;;;;;;15.59;74.83;99272.98;1625094;86;21262;-82
2021/05/15 03:45:36;;;;;;;10.55;7.40;;;;;;;15.70;74.25;99277.63;1627001;85;21128;-83
2021/05/15 03:48:03;;;;;;;11.73;7.75;;;;;;;15.72;73.92;99272.94;1645696;85;21085;-83
2021/05/15 03:50:32;;;;;;;14.80;7.20;;;;;;;15.72;73.80;99271.61;1645382;85;21657;-81
2021/05/15 03:52:58;;;;;;;14.23;6.58;;;;;;;15.53;74.20;99273.81;1648634;85;21146;-82
2021/05/15 03:55:28;;;;;;;11.30;7.58;;;;;;;15.57;73.82;99277.18;1606355;85;21146;-82
2021/05/15 03:57:58;;;;;;;9.63;5.90;;;;;;;15.52;74.10;99278.83;1642763;85;21028;-81
2021/05/15 04:00:25;;;;;;;;;;;;;;;15.65;73.70;99281.97;1621585;85;21707;-84
2021/05/15 04:02:54;;;;;;;10.03;6.20;;;;;;;15.73;73.48;99281.20;1663019;84;20348;-83
2021/05/15 04:05:24;;;;;;;9.73;6.05;;;;;;;15.73;73.49;99287.05;1671534;84;21124;-80
2021/05/15 04:07:53;;;;;;;9.75;6.67;;;;;;;15.87;72.93;99285.98;1669093;83;21094;-82
2021/05/15 04:10:27;;;;;;;9.93;5.90;;;;;;;15.73;73.46;99291.05;1669250;83;21088;-81
2021/05/15 04:16:15;;;;;;;10.15;5.80;;;;;;;15.61;73.41;99293.53;1670937;84;21143;-81
2021/05/15 04:17:55;;;;;;;10.00;6.33;;;;;;;15.47;73.98;99288.77;1651786;84;21143;-81
2021/05/15 04:20:24;;;;;;;8.95;5.78;;;;;;;15.34;74.35;99298.13;1633840;84;21036;-82
2021/05/15 04:22:51;;;;;;;9.28;6.30;;;;;;;15.39;74.10;99288.48;1659996;84;21666;-81
2021/05/15 04:25:21;;;;;;;8.23;6.15;;;;;;;15.35;74.16;99290.44;1662288;84;21049;-81
2021/05/15 04:27:47;;;;;;;9.23;5.87;;;;;;;15.49;73.71;99299.20;1635807;86;21103;-83
2021/05/15 04:30:18;;;;;;;10.75;6.15;;;;;;;15.42;73.44;99295.23;1633711;86;20917;-83
2021/05/15 04:32:43;;;;;;;11.38;6.10;;;;;;;15.33;73.80;99305.27;1664233;84;21143;-82
2021/05/15 04:35:11;;;;;;;10.75;6.25;;;;;;;15.46;73.59;99299.62;1658133;84;20980;-81
2021/05/15 04:37:37;;;;;;;10.98;6.03;;;;;;;15.51;73.02;99299.83;1637037;86;21547;-81
2021/05/15 04:40:08;;;;;;;9.93;5.85;;;;;;;15.60;72.63;99303.89;1660103;84;20932;-82
2021/05/15 04:42:39;;;;;;;11.78;6.53;;;;;;;15.75;72.07;99307.61;1661224;84;21135;-84
2021/05/15 04:45:09;;;;;;;10.90;5.80;;;;;;;15.81;72.19;99304.66;1613797;84;21105;-82
2021/05/15 04:47:35;;;;;;;9.65;6.20;;;;;;;15.81;72.10;99312.12;1657767;84;21617;-82
2021/05/15 04:50:06;;;;;;;8.63;5.95;;;;;;;15.76;71.92;99311.39;1662759;84;20969;-81
2021/05/15 04:52:32;;;;;;;10.30;5.62;;;;;;;15.84;71.67;99313.56;1661059;84;22389;-83
2021/05/15 04:55:02;;;;;;;8.58;6.03;;;;;;;15.77;71.78;99318.39;1663859;86;21120;-81
2021/05/15 04:57:29;;;;;;;12.65;6.22;;;;;;;15.55;72.55;99321.82;1659468;84;22289;-81
2021/05/15 04:59:55;;;;;;;;;;;;;;;15.90;71.47;99319.38;1663082;84;21108;-81
2021/05/15 05:02:24;;;;;;;12.23;6.00;;;;;;;15.79;71.44;99324.31;1646784;84;20680;-82
2021/05/15 05:04:50;;;;;;;10.70;6.17;;;;;;;15.81;71.34;99325.44;1626896;85;21063;-82
2021/05/15 05:07:19;;;;;;;10.68;6.37;;;;;;;15.51;72.14;99335.75;1629677;85;22139;-81
2021/05/15 05:09:47;;;;;;;10.40;6.90;;;;;;;15.50;72.24;99328.78;1631341;87;22685;-81
2021/05/15 05:12:17;;;;;;;12.35;6.65;;;;;;;15.67;71.55;99329.95;1599200;87;21128;-81
2021/05/15 05:14:46;;;;;;;10.75;6.40;;;;;;;15.63;71.71;99331.42;1629316;86;21124;-83
2021/05/15 05:17:13;;;;;;;9.75;6.33;;;;;;;15.53;71.60;99328.36;1604034;87;21758;-81
2021/05/15 05:19:43;;;;;;;11.08;5.92;;;;;;;15.84;70.83;99329.53;1602302;87;21092;-84
2021/05/15 05:22:13;;;;;;;7.65;5.33;;;;;;;15.86;70.59;99332.80;1636569;87;21946;-86
2021/05/15 05:24:44;;;;;;;8.38;5.67;;;;;;;15.74;70.04;99341.94;1605481;87;20958;-84
2021/05/15 05:27:09;;;;;;;10.13;5.53;;;;;;;15.49;70.53;99349.75;1636399;82;21076;-85
2021/05/15 05:29:40;;;;;;;10.78;4.87;;;;;;;15.58;70.63;99339.20;1607819;87;21722;-85
2021/05/15 05:32:09;;;;;;;8.50;5.00;;;;;;;15.72;70.20;99340.81;1629918;83;21357;-83
2021/05/15 05:34:39;;;;;;;9.88;4.60;;;;;;;15.49;70.35;99352.42;1637724;87;21084;-83
2021/05/15 05:37:09;;;;;;;8.38;4.78;;;;;;;15.33;70.67;99348.36;1636280;86;21060;-80
2021/05/15 05:39:36;;;;;;;9.43;5.00;;;;;;;15.44;70.23;99347.72;1628973;85;21108;-81
2021/05/15 05:42:03;;;;;;;7.20;4.72;;;;;;;15.15;70.34;99358.28;1606103;86;22530;-81
2021/05/15 05:44:29;;;;;;;6.97;4.62;;;;;;;15.33;69.37;99361.14;1599574;87;21140;-81
2021/05/15 05:47:03;;;;;;;8.10;4.78;;;;;;;15.05;69.92;99375.47;1630300;87;21195;-82
2021/05/15 05:49:31;;;;;;;10.85;4.83;;;;;;;14.83;70.03;99367.40;1627337;86;21150;-81
2021/05/15 05:52:01;;;;;;;7.00;4.85;;;;;;;14.86;69.91;99369.13;1623963;85;21386;-82
2021/05/15 05:54:28;;;;;;;7.15;4.65;;;;;;;14.96;69.83;99367.42;1625301;85;21167;-81
2021/05/15 05:57:00;;;;;;;7.20;4.83;;;;;;;14.88;70.09;99374.24;1630764;87;21138;-82
2021/05/15 05:59:28;;;;;;;5.70;3.98;;;;;;;15.19;69.42;99375.48;1636466;85;21712;-81
2021/05/15 06:01:56;;;;;;;8.45;4.60;;;;;;;15.21;69.11;99378.25;1626440;85;21115;-83
2021/05/15 06:04:25;;;;;;;5.92;3.98;;;;;;;15.46;68.33;99376.28;1635771;86;21789;-83
2021/05/15 06:06:52;;;;;;;7.90;4.92;;;;;;;15.55;68.05;99379.53;1633053;84;21136;-82
2021/05/15 06:09:20;;;;;;;6.35;4.12;;;;;;;15.40;68.36;99389.89;1660899;84;21736;-83
2021/05/15 06:11:49;;;;;;;6.05;3.58;;;;;;;15.25;68.45;99375.98;1662810;84;21665;-84
2021/05/15 06:14:17;;;;;;;7.53;4.55;;;;;;;15.41;67.79;99372.91;1659046;84;21063;-83
2021/05/15 06:16:44;;;;;;;7.28;4.10;;;;;;;15.34;67.68;99379.27;1663413;84;21515;-81
2021/05/15 06:19:17;;;;;;;6.67;3.90;;;;;;;15.23;67.92;99387.36;1636860;86;21252;-85
2021/05/15 06:21:49;;;;;;;6.83;4.20;;;;;;;15.36;67.52;99384.66;1663818;84;21136;-82
2021/05/15 06:24:19;;;;;;;6.25;3.98;;;;;;;15.50;67.11;99391.31;1660777;84;21996;-82
2021/05/15 06:26:47;;;;;;;6.53;4.10;;;;;;;15.19;67.75;99388.25;1662625;84;21052;-83
2021/05/15 06:29:18;;;;;;;6.17;3.90;;;;;;;15.18;67.90;99389.79;1641642;85;21039;-84
2021/05/15 06:31:46;;;;;;;6.50;3.50;;;;;;;15.35;67.58;99388.38;1659530;84;22379;-81
2021/05/15 06:34:19;;;;;;;;;;;;;;;15.39;66.80;99394.90;1665550;84;21088;-83
2021/05/15 06:36:46;;;;;;;4.58;2.80;;;;;;;15.46;65.99;99399.39;1664474;84;20259;-82
2021/05/15 06:39:13;;;;;;;;;;;;;;;15.10;66.14;99416.59;1664729;84;21362;-81
2021/05/15 06:41:42;;;;;;;3.10;2.50;;;;;;;15.06;66.48;99401.05;1636987;86;20641;-82
2021/05/15 06:44:08;;;;;;;4.80;2.77;;;;;;;15.29;65.82;99410.48;1661455;84;21175;-81
2021/05/15 06:46:36;;;;;;;5.53;2.60;;;;;;;15.32;66.18;99409.23;1662224;84;21148;-83
2021/05/15 06:49:03;;;;;;;4.03;2.80;;;;;;;15.39;65.93;99413.52;1663792;84;21037;-82
2021/05/15 06:51:32;;;;;;;4.80;2.83;;;;;;;15.43;65.58;99419.27;1636018;86;21049;-83
2021/05/15 06:54:03;;;;;;;4.15;2.37;;;;;;;15.21;65.81;99414.65;1663289;84;20976;-83
2021/05/15 06:56:27;;;;;;;4.47;2.50;;;;;;;15.47;65.47;99423.66;1662331;84;21638;-83
2021/05/15 06:58:53;;;;;;;3.15;2.30;;;;;;;15.27;65.37;99417.82;1659812;85;20944;-81
2021/05/15 07:01:22;;;;;;;4.70;2.50;;;;;;;15.55;65.15;99419.44;1663569;84;21176;-80
2021/05/15 07:03:50;;;;;;;3.77;2.12;;;;;;;15.18;65.42;99424.36;1663881;84;20996;-82
2021/05/15 07:06:21;;;;;;;4.37;2.33;;;;;;;15.36;65.50;99424.57;1663324;83;21164;-84
2021/05/15 07:08:51;;;;;;;2.85;2.40;;;;;;;15.29;64.13;99438.89;1639457;84;21147;-86
2021/05/15 07:11:24;;;;;;;4.92;2.87;;;;;;;15.36;63.82;99435.22;1664510;84;21075;-83
2021/05/15 07:13:51;;;;;;;3.35;2.58;;;;;;;15.40;64.12;99428.47;1661314;84;21309;-81
2021/05/15 07:16:20;;;;;;;;;;;;;;;15.64;63.83;99428.84;1664661;84;22523;-82
2021/05/15 07:18:47;;;;;;;5.08;2.90;;;;;;;15.69;64.03;99434.39;1668375;84;20541;-87
2021/05/15 07:21:14;;;;;;;4.12;2.85;;;;;;;15.98;62.71;99429.63;1637857;84;21244;-87
2021/05/15 07:23:42;;;;;;;2.87;2.45;;;;;;;16.04;62.57;99425.33;1637328;86;21072;-84
2021/05/15 07:26:10;;;;;;;;;;;;;;;16.23;62.40;99424.42;1666407;84;21096;-81
2021/05/15 07:28:40;;;;;;;3.98;2.58;;;;;;;16.43;61.88;99424.86;1659890;84;20310;-83
2021/05/15 07:31:12;;;;;;;5.22;2.80;;;;;;;16.15;62.73;99432.66;1656535;84;21621;-80
2021/05/15 07:33:38;;;;;;;4.03;2.70;;;;;;;15.95;63.12;99444.17;1663057;84;21098;-80
2021/05/15 07:36:08;;;;;;;5.80;3.02;;;;;;;16.17;62.59;99439.91;1662259;84;21140;-82
2021/05/15 07:38:37;;;;;;;4.92;2.37;;;;;;;16.11;63.11;99442.92;1660974;84;21182;-81
2021/05/15 07:41:05;;;;;;;5.85;2.37;;;;;;;16.15;62.56;99438.79;1661251;84;21172;-81
2021/05/15 07:43:34;;;;;;;3.65;2.22;;;;;;;16.33;62.31;99439.45;1660885;84;21160;-83
2021/05/15 07:46:03;;;;;;;4.25;2.15;;;;;;;16.57;61.57;99440.27;1661106;84;21068;-83
2021/05/15 07:48:41;;;;;;;3.83;1.90;;;;;;;16.34;61.30;99436.27;1661475;84;21044;-84
2021/05/15 07:51:12;;;;;;;3.02;1.98;;;;;;;16.45;60.66;99440.11;1663198;84;21170;-82
2021/05/15 07:53:40;;;;;;;7.83;1.90;;;;;;;16.71;60.33;99442.36;1656158;84;21131;-82
2021/05/15 07:56:09;;;;;;;2.95;1.92;;;;;;;16.77;60.20;99442.31;1666701;84;21120;-84
2021/05/15 07:58:35;;;;;;;4.35;2.40;;;;;;;16.53;60.55;99447.05;1662591;84;21127;-84
2021/05/15 08:01:00;;;;;;;6.08;2.08;;;;;;;16.52;60.77;99442.25;1613954;85;21028;-85
2021/05/15 08:03:32;;;;;;;6.00;1.80;;;;;;;16.73;60.30;99438.95;1666401;84;21118;-84
2021/05/15 08:06:07;;;;;;;3.17;1.77;;;;;;;17.09;59.82;99449.02;1662218;84;21143;-85
2021/05/15 08:08:38;;;;;;;2.85;1.82;;;;;;;17.12;59.29;99444.59;1664643;84;21278;-84
2021/05/15 08:11:13;;;;;;;2.83;1.70;;;;;;;17.36;59.10;99446.14;1658726;84;21093;-84
2021/05/15 08:13:47;;;;;;;4.72;1.70;;;;;;;17.31;58.22;99445.46;1661831;84;21104;-83
2021/05/15 08:16:16;;;;;;;5.03;1.90;;;;;;;17.36;58.42;99446.95;1661414;84;21186;-85
2021/05/15 08:18:44;;;;;;;4.58;2.10;;;;;;;17.39;58.19;99458.53;1637825;84;21724;-83
2021/05/15 08:21:10;;;;;;;5.45;1.77;;;;;;;17.48;57.86;99451.57;1667126;84;21028;-85
2021/05/15 08:23:42;;;;;;;3.70;2.10;;;;;;;17.67;57.79;99447.92;1661827;84;21158;-82
2021/05/15 08:26:10;;;;;;;2.77;1.72;;;;;;;17.54;57.30;99452.87;1661130;84;21136;-82
2021/05/15 08:28:42;;;;;;;4.85;1.90;;;;;;;17.55;56.84;99451.81;1655778;84;22098;-85
2021/05/15 08:31:12;;;;;;;3.00;1.80;;;;;;;17.91;56.50;99449.45;1635579;86;21107;-83
2021/05/15 08:33:39;;;;;;;2.87;1.98;;;;;;;17.71;56.12;99469.65;1666866;84;21000;-82
2021/05/15 08:36:07;;;;;;;3.37;2.40;;;;;;;17.52;56.17;99464.80;1662002;86;21120;-83
2021/05/15 08:38:38;;;;;;;3.22;1.60;;;;;;;17.47;56.95;99456.10;1662260;84;21135;-79
2021/05/15 08:41:09;;;;;;;4.62;1.95;;;;;;;17.40;56.41;99459.34;1667455;84;21649;-82
2021/05/15 08:43:42;;;;;;;2.60;1.80;;;;;;;17.57;56.62;99451.09;1663296;84;21024;-83
2021/05/15 08:46:14;;;;;;;2.42;1.52;;;;;;;17.74;56.49;99465.20;1636202;86;21330;-84
2021/05/15 08:48:43;;;;;;;2.10;1.30;;;;;;;17.37;54.71;99457.10;1659527;84;21084;-82
2021/05/15 08:51:11;;;;;;;4.72;1.57;;;;;;;17.40;54.87;99466.01;1661570;84;21088;-87
2021/05/15 08:53:39;;;;;;;1.82;1.35;;;;;;;17.39;54.71;99468.40;1663108;84;21117;-85
2021/05/15 08:56:12;;;;;;;3.15;1.20;;;;;;;17.62;53.77;99469.13;1661008;86;21700;-83
2021/05/15 08:58:44;;;;;;;1.85;1.40;;;;;;;17.33;53.57;99492.76;1635060;86;21069;-83
2021/05/15 09:01:14;;;;;;;2.22;1.50;;;;;;;17.33;53.50;99465.27;1662126;84;21688;-83
2021/05/15 09:03:48;;;;;;;3.22;1.77;;;;;;;17.64;52.94;99466.24;1630098;85;38247;-81
2021/05/15 09:06:17;;;;;;;3.20;1.60;;;;;;;17.52;53.13;99474.94;1614443;87;21833;-82
2021/05/15 09:08:48;;;;;;;2.90;1.65;;;;;;;17.46;53.37;99483.82;1619619;86;21374;-79
2021/05/15 09:11:20;;;;;;;4.08;1.67;;;;;;;17.52;52.90;99472.27;1649965;86;21055;-82
2021/05/15 09:13:55;;;;;;;4.95;1.90;;;;;;;17.79;52.18;99477.89;1651691;85;21160;-83
2021/05/15 09:16:25;;;;;;;3.15;1.92;;;;;;;17.53;52.45;99476.59;1650564;85;21080;-79
2021/05/15 09:19:08;;;;;;;3.02;1.72;;;;;;;17.71;51.82;99462.48;1650208;85;21222;-82
2021/05/15 09:21:38;;;;;;;6.12;1.80;;;;;;;17.97;51.61;99448.57;1648209;85;21656;-84
2021/05/15 09:24:08;;;;;;;3.27;1.67;;;;;;;18.15;50.75;99451.77;1650910;85;21049;-81
2021/05/15 09:26:36;;;;;;;3.15;1.90;;;;;;;18.07;50.38;99442.70;1626129;86;21187;-83
2021/05/15 09:29:04;;;;;;;5.65;2.10;;;;;;;18.28;49.56;99462.30;1652750;85;21268;-84
2021/05/15 09:31:44;;;;;;;3.52;1.98;;;;;;;18.20;48.92;99453.78;1625344;85;21367;-83
2021/05/15 09:34:10;;;;;;;5.83;2.30;;;;;;;18.12;48.85;99460.23;1653007;85;21056;-82
2021/05/15 09:36:43;;;;;;;4.42;1.92;;;;;;;18.04;49.03;99469.89;1652265;85;21095;-82
2021/05/15 09:39:21;;;;;;;4.83;1.87;;;;;;;17.94;47.13;99482.41;1651828;85;21175;-80
2021/05/15 09:42:01;;;;;;;2.47;1.60;;;;;;;17.87;46.32;99463.75;1651821;85;21084;-81
2021/05/15 09:44:36;;;;;;;5.12;1.85;;;;;;;18.13;46.10;99465.86;1629488;86;21239;-83
2021/05/15 09:47:06;;;;;;;4.55;2.27;;;;;;;18.08;47.01;99464.38;1649620;86;21116;-83
2021/05/15 09:49:35;;;;;;;4.58;2.08;;;;;;;18.07;46.87;99468.08;1651509;85;21000;-83
2021/05/15 09:52:06;;;;;;;8.70;2.02;;;;;;;18.35;46.51;99464.07;1651571;85;21181;-83
2021/05/15 09:54:40;;;;;;;4.22;1.90;;;;;;;18.43;45.61;99466.46;1653339;85;21041;-82
2021/05/15 09:57:15;;;;;;;8.33;2.75;;;;;;;18.64;45.74;99455.29;1652458;85;21186;-83
2021/05/15 09:59:49;;;;;;;7.47;2.40;;;;;;;18.47;45.96;99464.95;1657987;85;21001;-81
2021/05/15 10:02:20;;;;;;;3.80;2.37;;;;;;;18.66;45.86;99467.91;1626774;85;21079;-81
2021/05/15 10:04:51;;;;;;;6.67;2.60;;;;;;;18.41;45.12;99464.52;1618982;85;21703;-81
2021/05/15 10:07:20;;;;;;;7.95;2.47;;;;;;;18.56;44.95;99468.95;1654883;84;21127;-84
2021/05/15 10:09:48;;;;;;;5.95;2.85;;;;;;;18.51;45.26;99469.35;1657295;84;21071;-83
2021/05/15 10:12:16;;;;;;;7.28;2.60;;;;;;;18.61;44.76;99467.78;1653444;84;21017;-81
2021/05/15 10:14:44;;;;;;;6.45;2.50;;;;;;;18.63;44.87;99475.05;1655468;84;21114;-80
2021/05/15 10:17:10;;;;;;;5.08;2.77;;;;;;;18.63;44.96;99474.23;1634540;84;21406;-82
2021/05/15 10:19:37;;;;;;;6.30;2.77;;;;;;;18.71;45.06;99473.11;1649074;85;21056;-82
2021/05/15 10:22:04;;;;;;;7.70;3.22;;;;;;;18.92;45.66;99480.64;1653662;84;21126;-83
2021/05/15 10:24:31;;;;;;;;;;;;;;;18.94;45.16;99483.92;1662311;84;21031;-84
2021/05/15 10:27:12;;;;;;;8.08;3.08;;;;;;;19.00;45.14;99465.63;1654004;84;20160;-82
2021/05/15 10:29:49;;;;;;;5.25;3.25;;;;;;;18.92;45.16;99467.26;1653249;84;21028;-83
2021/05/15 10:32:27;;;;;;;7.30;3.22;;;;;;;18.58;45.91;99466.05;1654445;84;21595;-83
2021/05/15 10:35:07;;;;;;;6.42;3.02;;;;;;;18.94;45.50;99463.86;1655832;84;21669;-83
2021/05/15 10:37:42;;;;;;;6.03;2.98;;;;;;;18.99;45.29;99473.34;1653683;84;21092;-81
2021/05/15 10:40:20;;;;;;;4.12;2.20;;;;;;;18.87;44.89;99471.68;1650314;84;21579;-83
2021/05/15 10:42:52;;;;;;;;;;;;;;;19.33;44.37;99461.61;1653367;84;21186;-85
2021/05/15 10:45:17;;;;;;;6.78;2.95;;;;;;;19.08;43.45;99470.33;1653471;84;20617;-86
2021/05/15 10:47:46;;;;;;;8.45;2.47;;;;;;;19.59;43.45;99468.89;1605335;86;21325;-84
2021/05/15 10:50:21;;;;;;;6.35;2.90;;;;;;;19.52;43.30;99478.92;1658291;84;21147;-86
2021/05/15 10:52:50;;;;;;;5.50;2.95;;;;;;;19.69;42.40;99466.46;1631042;84;21138;-84
2021/05/15 10:55:33;;;;;;;6.67;2.98;;;;;;;19.50;43.14;99467.64;1657631;84;21137;-87
2021/05/15 10:58:13;;;;;;;4.60;2.70;;;;;;;19.41;43.37;99473.84;1659864;84;21178;-84
2021/05/15 11:00:44;;;;;;;9.23;3.30;;;;;;;19.62;43.57;99475.13;1633972;84;21435;-85
2021/05/15 11:03:10;;;;;;;4.92;2.75;;;;;;;19.44;43.54;99473.92;1658174;84;21422;-86
2021/05/15 11:05:46;;;;;;;7.58;2.72;;;;;;;19.60;43.25;99473.22;1630523;85;21104;-86
2021/05/15 11:08:26;;;;;;;4.60;2.50;;;;;;;19.41;43.20;99469.02;1652571;83;21113;-86
2021/05/15 11:10:52;;;;;;;6.78;2.83;;;;;;;19.39;42.87;99477.28;1619296;87;21160;-84
2021/05/15 11:13:18;;;;;;;7.33;2.90;;;;;;;19.68;43.08;99472.86;1617311;87;21054;-84
2021/05/15 11:15:46;;;;;;;5.75;2.80;;;;;;;19.57;42.64;99464.30;1612023;86;21043;-85
2021/05/15 11:18:36;;;;;;;7.30;2.90;;;;;;;19.44;42.82;99470.70;1603912;87;21057;-84
2021/05/15 11:21:02;;;;;;;6.05;2.92;;;;;;;19.77;42.42;99480.60;1607416;86;21616;-87
2021/05/15 11:23:28;;;;;;;6.75;2.80;;;;;;;19.83;42.27;99466.27;1605984;87;21138;-87
2021/05/15 11:25:59;;;;;;;6.42;2.90;;;;;;;19.80;42.56;99474.23;1604878;87;21156;-84
2021/05/15 11:28:29;;;;;;;4.80;2.25;;;;;;;19.76;42.19;99465.00;1605046;87;21151;-86
2021/05/15 11:30:56;;;;;;;7.00;2.35;;;;;;;20.25;41.96;99458.05;1605587;85;21722;-88
2021/05/15 11:33:25;;;;;;;4.30;2.25;;;;;;;20.34;41.13;99455.79;1603422;87;21180;-84
2021/05/15 11:35:58;;;;;;;5.90;2.60;;;;;;;20.00;41.40;99459.14;1603335;87;21655;-87
2021/05/15 11:38:29;;;;;;;7.97;2.52;;;;;;;19.95;41.85;99466.24;1604036;87;21111;-87
2021/05/15 11:41:01;;;;;;;4.58;2.25;;;;;;;20.52;41.63;99462.86;1604483;87;21090;-86
2021/05/15 11:43:32;;;;;;;4.55;2.35;;;;;;;20.31;40.34;99479.89;1602628;87;21149;-85